Elm, Pennsylvania
Current Conditions -  °F | °C
As of 6:53 AM on Thursday 18 Dec 2014 (Local Time) from KLNS Reporting Station
Overcast Overcast  
Wind Chill: 23°   Ceiling: 3900
Heat Index: 33°   Visibility: 10mi
Dew Point: 19°   Wind: 15mph
Humidity: 56%   Direction: 300°WNW
Pressure: 30.06"   Gusts: 25mph
Location:  40.2°N, 76.35°W
Report Text: KLNS 181153Z 30013G22KT 10SM OVC039 01/M07 A3006 RMK AO2 SLP183 T00061072 10022 20000 53013
Loading
Personal Weather Stations






























Interactive Weather Map New forecast layout! Learn more

10-Day Weather Forecast

Advertisements
Track Severe Weather on mobile